sensor_id;sensor_type;location;lat;lon;timestamp;P1;durP1;ratioP1;P2;durP2;ratioP2
51292;SDS011;37377;45.186;9.778;2023-06-14T00:02:34;18.30;;;13.88;;
51292;SDS011;37377;45.186;9.778;2023-06-14T00:10:48;16.13;;;13.38;;
51292;SDS011;37377;45.186;9.778;2023-06-14T00:14:52;15.20;;;13.60;;
51292;SDS011;37377;45.186;9.778;2023-06-14T00:18:00;14.38;;;12.77;;
51292;SDS011;37377;45.186;9.778;2023-06-14T00:24:08;16.63;;;14.50;;
51292;SDS011;37377;45.186;9.778;2023-06-14T00:27:32;22.00;;;15.63;;
51292;SDS011;37377;45.186;9.778;2023-06-14T00:31:47;17.27;;;15.75;;
51292;SDS011;37377;45.186;9.778;2023-06-14T00:38:46;18.70;;;15.30;;
51292;SDS011;37377;45.186;9.778;2023-06-14T00:42:33;21.00;;;15.40;;
51292;SDS011;37377;45.186;9.778;2023-06-14T00:45:52;16.90;;;14.82;;
51292;SDS011;37377;45.186;9.778;2023-06-14T00:48:58;18.10;;;15.80;;
51292;SDS011;37377;45.186;9.778;2023-06-14T00:51:54;18.08;;;16.45;;
51292;SDS011;37377;45.186;9.778;2023-06-14T01:13:57;35.50;;;23.40;;
51292;SDS011;37377;45.186;9.778;2023-06-14T01:16:29;25.27;;;20.73;;
51292;SDS011;37377;45.186;9.778;2023-06-14T01:19:09;23.60;;;21.15;;
51292;SDS011;37377;45.186;9.778;2023-06-14T01:21:56;27.60;;;22.50;;
51292;SDS011;37377;45.186;9.778;2023-06-14T01:24:56;24.23;;;21.70;;
51292;SDS011;37377;45.186;9.778;2023-06-14T01:28:02;29.42;;;22.60;;
51292;SDS011;37377;45.186;9.778;2023-06-14T01:32:12;25.35;;;21.90;;
51292;SDS011;37377;45.186;9.778;2023-06-14T01:45:44;27.40;;;24.75;;
51292;SDS011;37377;45.186;9.778;2023-06-14T01:50:25;24.45;;;22.05;;
51292;SDS011;37377;45.186;9.778;2023-06-14T01:58:49;31.70;;;25.65;;
51292;SDS011;37377;45.186;9.778;2023-06-14T02:01:59;28.88;;;25.75;;
51292;SDS011;37377;45.186;9.778;2023-06-14T02:05:43;30.17;;;27.17;;
51292;SDS011;37377;45.186;9.778;2023-06-14T02:09:31;31.15;;;27.95;;
51292;SDS011;37377;45.186;9.778;2023-06-14T02:17:45;30.85;;;27.73;;
51292;SDS011;37377;45.186;9.778;2023-06-14T02:21:19;33.95;;;29.13;;
51292;SDS011;37377;45.186;9.778;2023-06-14T02:28:08;35.95;;;32.15;;
51292;SDS011;37377;45.186;9.778;2023-06-14T02:31:44;34.75;;;31.25;;
51292;SDS011;37377;45.186;9.778;2023-06-14T02:34:54;35.97;;;30.60;;
51292;SDS011;37377;45.186;9.778;2023-06-14T02:37:37;36.15;;;32.08;;
51292;SDS011;37377;45.186;9.778;2023-06-14T02:40:51;35.05;;;31.25;;
51292;SDS011;37377;45.186;9.778;2023-06-14T02:44:18;34.13;;;30.80;;
51292;SDS011;37377;45.186;9.778;2023-06-14T02:47:33;34.67;;;31.17;;
51292;SDS011;37377;45.186;9.778;2023-06-14T02:50:33;39.58;;;31.48;;
51292;SDS011;37377;45.186;9.778;2023-06-14T02:58:20;37.78;;;32.60;;
51292;SDS011;37377;45.186;9.778;2023-06-14T03:01:28;42.78;;;32.45;;
51292;SDS011;37377;45.186;9.778;2023-06-14T03:04:19;34.33;;;30.33;;
51292;SDS011;37377;45.186;9.778;2023-06-14T03:07:41;31.17;;;27.90;;
51292;SDS011;37377;45.186;9.778;2023-06-14T03:11:48;31.20;;;24.08;;
51292;SDS011;37377;45.186;9.778;2023-06-14T03:15:18;22.30;;;20.05;;
51292;SDS011;37377;45.186;9.778;2023-06-14T03:18:30;22.08;;;20.20;;
51292;SDS011;37377;45.186;9.778;2023-06-14T03:25:44;20.52;;;18.38;;
51292;SDS011;37377;45.186;9.778;2023-06-14T03:28:46;18.40;;;16.48;;
51292;SDS011;37377;45.186;9.778;2023-06-14T03:31:41;18.15;;;16.55;;
51292;SDS011;37377;45.186;9.778;2023-06-14T03:34:53;20.38;;;15.10;;
51292;SDS011;37377;45.186;9.778;2023-06-14T03:48:26;12.15;;;10.98;;
51292;SDS011;37377;45.186;9.778;2023-06-14T03:51:34;12.48;;;10.95;;
51292;SDS011;37377;45.186;9.778;2023-06-14T03:54:56;11.45;;;10.52;;
51292;SDS011;37377;45.186;9.778;2023-06-14T03:57:37;12.43;;;11.38;;
51292;SDS011;37377;45.186;9.778;2023-06-14T04:01:02;10.98;;;10.18;;
51292;SDS011;37377;45.186;9.778;2023-06-14T04:08:56;11.63;;;10.45;;
51292;SDS011;37377;45.186;9.778;2023-06-14T04:12:24;10.60;;;9.55;;
51292;SDS011;37377;45.186;9.778;2023-06-14T04:19:12;10.57;;;9.68;;
51292;SDS011;37377;45.186;9.778;2023-06-14T04:22:03;10.60;;;9.48;;
51292;SDS011;37377;45.186;9.778;2023-06-14T04:24:37;10.85;;;10.05;;
51292;SDS011;37377;45.186;9.778;2023-06-14T04:27:29;12.50;;;11.02;;
51292;SDS011;37377;45.186;9.778;2023-06-14T04:33:08;11.98;;;9.70;;
51292;SDS011;37377;45.186;9.778;2023-06-14T04:35:41;14.35;;;10.43;;
51292;SDS011;37377;45.186;9.778;2023-06-14T04:38:18;12.70;;;10.65;;
51292;SDS011;37377;45.186;9.778;2023-06-14T04:41:10;11.98;;;10.95;;
51292;SDS011;37377;45.186;9.778;2023-06-14T04:43:52;12.13;;;10.95;;
51292;SDS011;37377;45.186;9.778;2023-06-14T04:47:16;11.77;;;10.77;;
51292;SDS011;37377;45.186;9.778;2023-06-14T04:49:47;12.30;;;11.13;;
51292;SDS011;37377;45.186;9.778;2023-06-14T04:52:28;15.25;;;11.48;;
51292;SDS011;37377;45.186;9.778;2023-06-14T04:55:55;11.43;;;10.52;;
51292;SDS011;37377;45.186;9.778;2023-06-14T04:59:13;11.57;;;10.52;;
51292;SDS011;37377;45.186;9.778;2023-06-14T05:02:28;42.03;;;11.20;;
51292;SDS011;37377;45.186;9.778;2023-06-14T05:05:05;13.75;;;12.32;;
51292;SDS011;37377;45.186;9.778;2023-06-14T05:11:04;12.95;;;10.02;;
51292;SDS011;37377;45.186;9.778;2023-06-14T05:13:41;16.75;;;10.07;;
51292;SDS011;37377;45.186;9.778;2023-06-14T05:16:15;10.07;;;9.23;;
51292;SDS011;37377;45.186;9.778;2023-06-14T05:18:46;12.70;;;8.63;;
51292;SDS011;37377;45.186;9.778;2023-06-14T05:22:09;10.00;;;9.07;;
51292;SDS011;37377;45.186;9.778;2023-06-14T05:24:41;14.00;;;8.55;;
51292;SDS011;37377;45.186;9.778;2023-06-14T05:27:09;12.23;;;9.35;;
51292;SDS011;37377;45.186;9.778;2023-06-14T05:29:43;24.50;;;10.20;;
51292;SDS011;37377;45.186;9.778;2023-06-14T05:32:13;15.80;;;9.82;;
51292;SDS011;37377;45.186;9.778;2023-06-14T05:34:50;13.95;;;9.95;;
51292;SDS011;37377;45.186;9.778;2023-06-14T05:38:04;11.45;;;10.25;;
51292;SDS011;37377;45.186;9.778;2023-06-14T05:40:36;11.73;;;10.52;;
51292;SDS011;37377;45.186;9.778;2023-06-14T05:43:24;16.60;;;12.55;;
51292;SDS011;37377;45.186;9.778;2023-06-14T05:46:00;18.48;;;12.40;;
51292;SDS011;37377;45.186;9.778;2023-06-14T05:49:40;19.58;;;12.85;;
51292;SDS011;37377;45.186;9.778;2023-06-14T05:52:07;16.23;;;14.52;;
51292;SDS011;37377;45.186;9.778;2023-06-14T05:54:47;18.02;;;16.08;;
51292;SDS011;37377;45.186;9.778;2023-06-14T05:57:17;17.50;;;15.82;;
51292;SDS011;37377;45.186;9.778;2023-06-14T05:59:45;24.52;;;17.52;;
51292;SDS011;37377;45.186;9.778;2023-06-14T06:02:18;19.20;;;17.17;;
51292;SDS011;37377;45.186;9.778;2023-06-14T06:04:50;21.27;;;19.05;;
51292;SDS011;37377;45.186;9.778;2023-06-14T06:07:23;21.45;;;18.77;;
51292;SDS011;37377;45.186;9.778;2023-06-14T06:10:10;20.23;;;18.30;;
51292;SDS011;37377;45.186;9.778;2023-06-14T06:12:43;20.35;;;18.30;;
51292;SDS011;37377;45.186;9.778;2023-06-14T06:15:20;23.25;;;18.40;;
51292;SDS011;37377;45.186;9.778;2023-06-14T06:18:46;23.90;;;21.02;;
51292;SDS011;37377;45.186;9.778;2023-06-14T06:21:39;22.05;;;19.95;;
51292;SDS011;37377;45.186;9.778;2023-06-14T06:25:05;26.90;;;20.75;;
51292;SDS011;37377;45.186;9.778;2023-06-14T06:27:36;22.95;;;20.63;;
51292;SDS011;37377;45.186;9.778;2023-06-14T06:30:07;26.40;;;21.30;;
51292;SDS011;37377;45.186;9.778;2023-06-14T06:32:34;28.25;;;21.08;;
51292;SDS011;37377;45.186;9.778;2023-06-14T06:35:01;28.85;;;21.15;;
51292;SDS011;37377;45.186;9.778;2023-06-14T06:37:28;25.50;;;21.33;;
51292;SDS011;37377;45.186;9.778;2023-06-14T06:39:58;33.25;;;27.20;;
51292;SDS011;37377;45.186;9.778;2023-06-14T06:42:57;25.40;;;21.88;;
51292;SDS011;37377;45.186;9.778;2023-06-14T06:45:26;69.15;;;35.70;;
51292;SDS011;37377;45.186;9.778;2023-06-14T06:47:56;27.27;;;24.25;;
51292;SDS011;37377;45.186;9.778;2023-06-14T06:50:23;33.70;;;23.80;;
51292;SDS011;37377;45.186;9.778;2023-06-14T06:52:53;29.25;;;23.73;;
51292;SDS011;37377;45.186;9.778;2023-06-14T06:55:20;26.98;;;24.15;;
51292;SDS011;37377;45.186;9.778;2023-06-14T06:57:47;36.47;;;25.65;;
51292;SDS011;37377;45.186;9.778;2023-06-14T07:00:22;29.50;;;26.23;;
51292;SDS011;37377;45.186;9.778;2023-06-14T07:02:52;32.75;;;25.65;;
51292;SDS011;37377;45.186;9.778;2023-06-14T07:05:21;30.83;;;27.40;;
51292;SDS011;37377;45.186;9.778;2023-06-14T07:07:49;30.63;;;27.40;;
51292;SDS011;37377;45.186;9.778;2023-06-14T07:10:16;33.05;;;28.42;;
51292;SDS011;37377;45.186;9.778;2023-06-14T07:12:44;32.75;;;28.52;;
51292;SDS011;37377;45.186;9.778;2023-06-14T07:15:11;36.17;;;27.73;;
51292;SDS011;37377;45.186;9.778;2023-06-14T07:17:39;36.85;;;28.70;;
51292;SDS011;37377;45.186;9.778;2023-06-14T07:20:07;39.13;;;30.00;;
51292;SDS011;37377;45.186;9.778;2023-06-14T07:22:36;34.15;;;30.25;;
51292;SDS011;37377;45.186;9.778;2023-06-14T07:25:03;35.13;;;31.52;;
51292;SDS011;37377;45.186;9.778;2023-06-14T07:27:31;41.78;;;30.77;;
51292;SDS011;37377;45.186;9.778;2023-06-14T07:29:58;35.60;;;30.35;;
51292;SDS011;37377;45.186;9.778;2023-06-14T07:32:28;33.88;;;30.23;;
51292;SDS011;37377;45.186;9.778;2023-06-14T07:34:55;32.97;;;29.55;;
51292;SDS011;37377;45.186;9.778;2023-06-14T07:37:22;38.38;;;29.38;;
51292;SDS011;37377;45.186;9.778;2023-06-14T07:39:51;40.35;;;29.77;;
51292;SDS011;37377;45.186;9.778;2023-06-14T07:42:17;40.03;;;30.90;;
51292;SDS011;37377;45.186;9.778;2023-06-14T07:44:44;35.40;;;30.90;;
51292;SDS011;37377;45.186;9.778;2023-06-14T07:47:11;37.33;;;30.55;;
51292;SDS011;37377;45.186;9.778;2023-06-14T07:49:39;32.45;;;29.08;;
51292;SDS011;37377;45.186;9.778;2023-06-14T07:52:07;43.35;;;30.77;;
51292;SDS011;37377;45.186;9.778;2023-06-14T07:54:35;40.10;;;30.00;;
51292;SDS011;37377;45.186;9.778;2023-06-14T07:57:06;33.13;;;27.55;;
51292;SDS011;37377;45.186;9.778;2023-06-14T07:59:34;36.63;;;27.85;;
51292;SDS011;37377;45.186;9.778;2023-06-14T08:02:02;33.67;;;26.88;;
51292;SDS011;37377;45.186;9.778;2023-06-14T08:04:29;30.02;;;26.67;;
51292;SDS011;37377;45.186;9.778;2023-06-14T08:06:56;34.13;;;27.73;;
51292;SDS011;37377;45.186;9.778;2023-06-14T08:09:23;37.17;;;27.20;;
51292;SDS011;37377;45.186;9.778;2023-06-14T08:11:51;37.88;;;27.70;;
51292;SDS011;37377;45.186;9.778;2023-06-14T08:14:19;34.58;;;27.50;;
51292;SDS011;37377;45.186;9.778;2023-06-14T08:16:46;31.35;;;27.98;;
51292;SDS011;37377;45.186;9.778;2023-06-14T08:19:13;30.17;;;27.00;;
51292;SDS011;37377;45.186;9.778;2023-06-14T08:21:40;34.13;;;27.25;;
51292;SDS011;37377;45.186;9.778;2023-06-14T08:24:07;31.45;;;28.15;;
51292;SDS011;37377;45.186;9.778;2023-06-14T08:26:35;42.58;;;29.33;;
51292;SDS011;37377;45.186;9.778;2023-06-14T08:29:03;30.88;;;26.13;;
51292;SDS011;37377;45.186;9.778;2023-06-14T08:31:30;32.72;;;26.60;;
51292;SDS011;37377;45.186;9.778;2023-06-14T08:33:59;32.30;;;26.45;;
51292;SDS011;37377;45.186;9.778;2023-06-14T08:36:26;35.92;;;28.27;;
51292;SDS011;37377;45.186;9.778;2023-06-14T08:38:54;37.92;;;28.33;;
51292;SDS011;37377;45.186;9.778;2023-06-14T08:41:24;29.33;;;26.33;;
51292;SDS011;37377;45.186;9.778;2023-06-14T08:43:52;33.00;;;26.48;;
51292;SDS011;37377;45.186;9.778;2023-06-14T08:46:19;29.77;;;26.55;;
51292;SDS011;37377;45.186;9.778;2023-06-14T08:48:47;32.00;;;25.83;;
51292;SDS011;37377;45.186;9.778;2023-06-14T08:51:25;36.22;;;25.30;;
51292;SDS011;37377;45.186;9.778;2023-06-14T08:53:54;30.52;;;24.10;;
51292;SDS011;37377;45.186;9.778;2023-06-14T08:56:25;27.48;;;23.63;;
51292;SDS011;37377;45.186;9.778;2023-06-14T08:58:54;28.27;;;23.48;;
51292;SDS011;37377;45.186;9.778;2023-06-14T09:01:22;23.80;;;21.00;;
51292;SDS011;37377;45.186;9.778;2023-06-14T09:03:53;29.63;;;21.95;;
51292;SDS011;37377;45.186;9.778;2023-06-14T09:06:22;25.25;;;21.27;;
51292;SDS011;37377;45.186;9.778;2023-06-14T09:08:50;24.27;;;21.02;;
51292;SDS011;37377;45.186;9.778;2023-06-14T09:11:20;26.08;;;20.95;;
51292;SDS011;37377;45.186;9.778;2023-06-14T09:13:50;23.20;;;18.92;;
51292;SDS011;37377;45.186;9.778;2023-06-14T09:16:17;21.40;;;19.30;;
51292;SDS011;37377;45.186;9.778;2023-06-14T09:18:44;23.92;;;19.58;;
51292;SDS011;37377;45.186;9.778;2023-06-14T09:21:47;21.33;;;19.23;;
51292;SDS011;37377;45.186;9.778;2023-06-14T09:24:13;21.45;;;18.42;;
51292;SDS011;37377;45.186;9.778;2023-06-14T09:26:41;31.33;;;18.58;;
51292;SDS011;37377;45.186;9.778;2023-06-14T09:29:09;20.55;;;17.20;;
51292;SDS011;37377;45.186;9.778;2023-06-14T09:31:36;25.38;;;16.85;;
51292;SDS011;37377;45.186;9.778;2023-06-14T09:34:03;20.80;;;16.33;;
51292;SDS011;37377;45.186;9.778;2023-06-14T09:36:33;19.23;;;16.10;;
51292;SDS011;37377;45.186;9.778;2023-06-14T09:39:01;20.33;;;16.13;;
51292;SDS011;37377;45.186;9.778;2023-06-14T09:41:32;23.33;;;16.17;;
51292;SDS011;37377;45.186;9.778;2023-06-14T09:44:07;20.05;;;15.57;;
51292;SDS011;37377;45.186;9.778;2023-06-14T09:47:01;15.98;;;14.50;;
51292;SDS011;37377;45.186;9.778;2023-06-14T09:49:29;23.77;;;14.40;;
51292;SDS011;37377;45.186;9.778;2023-06-14T09:52:03;29.55;;;19.13;;
51292;SDS011;37377;45.186;9.778;2023-06-14T09:54:52;19.27;;;15.23;;
51292;SDS011;37377;45.186;9.778;2023-06-14T09:57:26;18.90;;;15.50;;
51292;SDS011;37377;45.186;9.778;2023-06-14T09:59:59;24.77;;;18.05;;
51292;SDS011;37377;45.186;9.778;2023-06-14T10:02:38;19.08;;;15.23;;
51292;SDS011;37377;45.186;9.778;2023-06-14T10:05:06;16.75;;;14.93;;
51292;SDS011;37377;45.186;9.778;2023-06-14T10:08:20;17.60;;;15.75;;
51292;SDS011;37377;45.186;9.778;2023-06-14T10:10:23;17.40;;;15.48;;
51292;SDS011;37377;45.186;9.778;2023-06-14T10:12:53;18.17;;;16.10;;
51292;SDS011;37377;45.186;9.778;2023-06-14T10:15:23;17.77;;;16.08;;
51292;SDS011;37377;45.186;9.778;2023-06-14T10:17:53;22.13;;;16.23;;
51292;SDS011;37377;45.186;9.778;2023-06-14T10:20:30;21.65;;;17.10;;
51292;SDS011;37377;45.186;9.778;2023-06-14T10:23:10;25.48;;;17.33;;
51292;SDS011;37377;45.186;9.778;2023-06-14T10:25:41;18.77;;;17.03;;
51292;SDS011;37377;45.186;9.778;2023-06-14T10:30:39;26.65;;;17.52;;
51292;SDS011;37377;45.186;9.778;2023-06-14T10:33:06;30.55;;;18.33;;
51292;SDS011;37377;45.186;9.778;2023-06-14T10:35:34;19.77;;;17.60;;
51292;SDS011;37377;45.186;9.778;2023-06-14T10:38:13;19.08;;;16.35;;
51292;SDS011;37377;45.186;9.778;2023-06-14T10:41:36;18.65;;;16.75;;
51292;SDS011;37377;45.186;9.778;2023-06-14T10:46:40;22.77;;;16.23;;
51292;SDS011;37377;45.186;9.778;2023-06-14T10:49:17;17.15;;;14.25;;
51292;SDS011;37377;45.186;9.778;2023-06-14T10:51:50;20.67;;;14.68;;
51292;SDS011;37377;45.186;9.778;2023-06-14T10:54:21;16.92;;;14.10;;
51292;SDS011;37377;45.186;9.778;2023-06-14T11:06:00;14.32;;;11.10;;
51292;SDS011;37377;45.186;9.778;2023-06-14T11:11:51;19.55;;;9.73;;
51292;SDS011;37377;45.186;9.778;2023-06-14T11:14:18;9.43;;;8.07;;
51292;SDS011;37377;45.186;9.778;2023-06-14T11:16:57;12.27;;;8.52;;
51292;SDS011;37377;45.186;9.778;2023-06-14T11:19:26;8.20;;;7.43;;
51292;SDS011;37377;45.186;9.778;2023-06-14T11:25:08;7.75;;;6.35;;
51292;SDS011;37377;45.186;9.778;2023-06-14T11:27:55;9.77;;;7.50;;
51292;SDS011;37377;45.186;9.778;2023-06-14T11:31:24;9.82;;;7.32;;
51292;SDS011;37377;45.186;9.778;2023-06-14T11:39:46;13.27;;;9.73;;
51292;SDS011;37377;45.186;9.778;2023-06-14T11:43:02;15.55;;;10.32;;
51292;SDS011;37377;45.186;9.778;2023-06-14T11:45:34;13.33;;;9.93;;
51292;SDS011;37377;45.186;9.778;2023-06-14T11:48:02;13.00;;;9.63;;
51292;SDS011;37377;45.186;9.778;2023-06-14T11:50:41;11.50;;;9.75;;
51292;SDS011;37377;45.186;9.778;2023-06-14T11:53:25;10.68;;;9.57;;
51292;SDS011;37377;45.186;9.778;2023-06-14T11:59:04;10.68;;;9.80;;
51292;SDS011;37377;45.186;9.778;2023-06-14T12:01:42;17.90;;;10.25;;
51292;SDS011;37377;45.186;9.778;2023-06-14T12:04:09;15.00;;;9.57;;
51292;SDS011;37377;45.186;9.778;2023-06-14T12:06:36;11.75;;;10.63;;
51292;SDS011;37377;45.186;9.778;2023-06-14T12:09:07;15.07;;;13.30;;
51292;SDS011;37377;45.186;9.778;2023-06-14T12:11:39;10.63;;;8.30;;
51292;SDS011;37377;45.186;9.778;2023-06-14T12:14:05;10.52;;;9.48;;
51292;SDS011;37377;45.186;9.778;2023-06-14T12:16:33;14.52;;;9.60;;
51292;SDS011;37377;45.186;9.778;2023-06-14T12:19:01;16.63;;;8.90;;
51292;SDS011;37377;45.186;9.778;2023-06-14T12:21:34;12.75;;;10.85;;
51292;SDS011;37377;45.186;9.778;2023-06-14T12:24:14;10.15;;;7.93;;
51292;SDS011;37377;45.186;9.778;2023-06-14T12:26:41;12.82;;;9.60;;
51292;SDS011;37377;45.186;9.778;2023-06-14T12:29:08;10.98;;;8.38;;
51292;SDS011;37377;45.186;9.778;2023-06-14T12:38:24;14.85;;;7.40;;
51292;SDS011;37377;45.186;9.778;2023-06-14T12:41:35;9.87;;;8.87;;
51292;SDS011;37377;45.186;9.778;2023-06-14T12:44:45;15.32;;;8.30;;
51292;SDS011;37377;45.186;9.778;2023-06-14T12:47:27;13.52;;;8.02;;
51292;SDS011;37377;45.186;9.778;2023-06-14T12:50:19;20.50;;;9.10;;
51292;SDS011;37377;45.186;9.778;2023-06-14T12:52:49;12.52;;;8.77;;
51292;SDS011;37377;45.186;9.778;2023-06-14T12:55:16;11.25;;;9.15;;
51292;SDS011;37377;45.186;9.778;2023-06-14T12:57:46;16.70;;;9.75;;
51292;SDS011;37377;45.186;9.778;2023-06-14T13:00:16;13.68;;;7.60;;
51292;SDS011;37377;45.186;9.778;2023-06-14T13:02:44;9.95;;;8.57;;
51292;SDS011;37377;45.186;9.778;2023-06-14T13:05:11;11.88;;;7.22;;
51292;SDS011;37377;45.186;9.778;2023-06-14T13:07:37;23.42;;;8.43;;
51292;SDS011;37377;45.186;9.778;2023-06-14T13:10:04;9.32;;;7.57;;
51292;SDS011;37377;45.186;9.778;2023-06-14T13:12:31;16.85;;;9.25;;
51292;SDS011;37377;45.186;9.778;2023-06-14T13:14:58;10.80;;;9.70;;
51292;SDS011;37377;45.186;9.778;2023-06-14T13:17:25;10.45;;;9.52;;
51292;SDS011;37377;45.186;9.778;2023-06-14T13:19:51;11.35;;;10.30;;
51292;SDS011;37377;45.186;9.778;2023-06-14T13:22:18;10.98;;;9.80;;
51292;SDS011;37377;45.186;9.778;2023-06-14T13:24:45;12.90;;;10.95;;
51292;SDS011;37377;45.186;9.778;2023-06-14T13:27:12;11.30;;;9.90;;
51292;SDS011;37377;45.186;9.778;2023-06-14T13:29:40;14.43;;;10.60;;
51292;SDS011;37377;45.186;9.778;2023-06-14T13:32:08;11.95;;;10.82;;
51292;SDS011;37377;45.186;9.778;2023-06-14T13:34:35;12.30;;;9.30;;
51292;SDS011;37377;45.186;9.778;2023-06-14T13:39:35;10.43;;;9.30;;
51292;SDS011;37377;45.186;9.778;2023-06-14T13:42:07;9.70;;;8.00;;
51292;SDS011;37377;45.186;9.778;2023-06-14T13:44:34;13.05;;;9.60;;
51292;SDS011;37377;45.186;9.778;2023-06-14T13:47:01;9.93;;;8.02;;
51292;SDS011;37377;45.186;9.778;2023-06-14T13:49:28;14.05;;;8.82;;
51292;SDS011;37377;45.186;9.778;2023-06-14T13:51:57;12.40;;;11.00;;
51292;SDS011;37377;45.186;9.778;2023-06-14T13:54:24;14.82;;;11.68;;
51292;SDS011;37377;45.186;9.778;2023-06-14T13:56:51;16.73;;;11.57;;
51292;SDS011;37377;45.186;9.778;2023-06-14T13:59:18;12.52;;;10.60;;
51292;SDS011;37377;45.186;9.778;2023-06-14T14:01:44;16.33;;;11.15;;
51292;SDS011;37377;45.186;9.778;2023-06-14T14:04:12;19.55;;;11.43;;
51292;SDS011;37377;45.186;9.778;2023-06-14T14:06:39;12.38;;;10.98;;
51292;SDS011;37377;45.186;9.778;2023-06-14T14:09:09;13.23;;;11.82;;
51292;SDS011;37377;45.186;9.778;2023-06-14T14:11:36;12.38;;;10.77;;
51292;SDS011;37377;45.186;9.778;2023-06-14T14:14:03;15.95;;;11.35;;
51292;SDS011;37377;45.186;9.778;2023-06-14T14:16:31;13.13;;;11.32;;
51292;SDS011;37377;45.186;9.778;2023-06-14T14:18:58;15.55;;;12.63;;
51292;SDS011;37377;45.186;9.778;2023-06-14T14:21:25;26.35;;;12.93;;
51292;SDS011;37377;45.186;9.778;2023-06-14T14:23:52;20.38;;;11.93;;
51292;SDS011;37377;45.186;9.778;2023-06-14T14:26:19;19.35;;;11.95;;
51292;SDS011;37377;45.186;9.778;2023-06-14T14:28:47;15.63;;;12.27;;
51292;SDS011;37377;45.186;9.778;2023-06-14T14:31:13;19.63;;;13.82;;
51292;SDS011;37377;45.186;9.778;2023-06-14T14:33:41;16.50;;;12.82;;
51292;SDS011;37377;45.186;9.778;2023-06-14T14:36:08;16.48;;;12.23;;
51292;SDS011;37377;45.186;9.778;2023-06-14T14:38:35;17.13;;;12.70;;
51292;SDS011;37377;45.186;9.778;2023-06-14T14:41:02;25.65;;;13.30;;
51292;SDS011;37377;45.186;9.778;2023-06-14T14:43:28;17.88;;;13.60;;
51292;SDS011;37377;45.186;9.778;2023-06-14T14:45:57;24.33;;;14.10;;
51292;SDS011;37377;45.186;9.778;2023-06-14T14:48:24;22.75;;;13.73;;
51292;SDS011;37377;45.186;9.778;2023-06-14T14:50:51;15.90;;;14.32;;
51292;SDS011;37377;45.186;9.778;2023-06-14T14:53:18;17.95;;;14.60;;
51292;SDS011;37377;45.186;9.778;2023-06-14T14:55:45;18.23;;;12.93;;
51292;SDS011;37377;45.186;9.778;2023-06-14T14:58:13;23.90;;;14.75;;
51292;SDS011;37377;45.186;9.778;2023-06-14T15:00:44;17.88;;;14.43;;
51292;SDS011;37377;45.186;9.778;2023-06-14T15:03:14;19.98;;;15.10;;
51292;SDS011;37377;45.186;9.778;2023-06-14T15:05:41;16.65;;;13.77;;
51292;SDS011;37377;45.186;9.778;2023-06-14T15:08:08;22.55;;;13.93;;
51292;SDS011;37377;45.186;9.778;2023-06-14T15:10:38;16.13;;;14.43;;
51292;SDS011;37377;45.186;9.778;2023-06-14T15:13:07;16.70;;;14.82;;
51292;SDS011;37377;45.186;9.778;2023-06-14T15:15:35;18.75;;;15.27;;
51292;SDS011;37377;45.186;9.778;2023-06-14T15:18:02;22.23;;;15.30;;
51292;SDS011;37377;45.186;9.778;2023-06-14T15:20:29;23.30;;;16.25;;
51292;SDS011;37377;45.186;9.778;2023-06-14T15:22:56;18.33;;;16.52;;
51292;SDS011;37377;45.186;9.778;2023-06-14T15:25:29;21.77;;;18.35;;
51292;SDS011;37377;45.186;9.778;2023-06-14T15:27:56;20.27;;;16.17;;
51292;SDS011;37377;45.186;9.778;2023-06-14T15:30:23;21.83;;;15.18;;
51292;SDS011;37377;45.186;9.778;2023-06-14T15:32:50;18.75;;;16.77;;
51292;SDS011;37377;45.186;9.778;2023-06-14T15:35:17;23.15;;;15.35;;
51292;SDS011;37377;45.186;9.778;2023-06-14T15:37:47;25.45;;;15.65;;
51292;SDS011;37377;45.186;9.778;2023-06-14T15:40:14;27.15;;;16.63;;
51292;SDS011;37377;45.186;9.778;2023-06-14T15:42:41;19.48;;;17.65;;
51292;SDS011;37377;45.186;9.778;2023-06-14T15:45:08;26.42;;;17.67;;
51292;SDS011;37377;45.186;9.778;2023-06-14T15:47:35;19.73;;;17.40;;
51292;SDS011;37377;45.186;9.778;2023-06-14T15:50:02;22.08;;;18.10;;
51292;SDS011;37377;45.186;9.778;2023-06-14T15:52:31;20.85;;;16.02;;
51292;SDS011;37377;45.186;9.778;2023-06-14T15:54:58;18.13;;;15.35;;
51292;SDS011;37377;45.186;9.778;2023-06-14T15:57:25;17.45;;;15.57;;
51292;SDS011;37377;45.186;9.778;2023-06-14T15:59:52;17.00;;;15.30;;
51292;SDS011;37377;45.186;9.778;2023-06-14T16:02:19;22.85;;;15.25;;
51292;SDS011;37377;45.186;9.778;2023-06-14T16:04:46;25.33;;;14.60;;
51292;SDS011;37377;45.186;9.778;2023-06-14T16:07:14;19.85;;;15.30;;
51292;SDS011;37377;45.186;9.778;2023-06-14T16:09:41;22.77;;;14.70;;
51292;SDS011;37377;45.186;9.778;2023-06-14T16:12:08;23.75;;;16.38;;
51292;SDS011;37377;45.186;9.778;2023-06-14T16:14:35;21.27;;;16.10;;
51292;SDS011;37377;45.186;9.778;2023-06-14T16:17:02;18.73;;;14.10;;
51292;SDS011;37377;45.186;9.778;2023-06-14T16:19:29;15.30;;;13.85;;
51292;SDS011;37377;45.186;9.778;2023-06-14T16:21:56;20.08;;;14.48;;
51292;SDS011;37377;45.186;9.778;2023-06-14T16:24:25;17.15;;;14.77;;
51292;SDS011;37377;45.186;9.778;2023-06-14T16:26:52;19.98;;;14.98;;
51292;SDS011;37377;45.186;9.778;2023-06-14T16:29:20;18.95;;;15.45;;
51292;SDS011;37377;45.186;9.778;2023-06-14T16:31:47;22.90;;;15.20;;
51292;SDS011;37377;45.186;9.778;2023-06-14T16:34:14;15.75;;;14.30;;
51292;SDS011;37377;45.186;9.778;2023-06-14T16:36:42;19.58;;;14.40;;
51292;SDS011;37377;45.186;9.778;2023-06-14T16:39:09;24.58;;;14.52;;
51292;SDS011;37377;45.186;9.778;2023-06-14T16:41:38;15.60;;;14.13;;
51292;SDS011;37377;45.186;9.778;2023-06-14T16:44:05;19.35;;;14.73;;
51292;SDS011;37377;45.186;9.778;2023-06-14T16:46:32;22.27;;;14.52;;
51292;SDS011;37377;45.186;9.778;2023-06-14T16:48:59;19.38;;;14.50;;
51292;SDS011;37377;45.186;9.778;2023-06-14T16:51:27;20.33;;;14.52;;
51292;SDS011;37377;45.186;9.778;2023-06-14T16:53:54;22.30;;;13.52;;
51292;SDS011;37377;45.186;9.778;2023-06-14T16:56:22;21.42;;;12.50;;
51292;SDS011;37377;45.186;9.778;2023-06-14T16:58:53;17.85;;;13.65;;
51292;SDS011;37377;45.186;9.778;2023-06-14T17:01:21;15.23;;;13.68;;
51292;SDS011;37377;45.186;9.778;2023-06-14T17:03:48;16.25;;;12.73;;
51292;SDS011;37377;45.186;9.778;2023-06-14T17:06:16;16.60;;;13.40;;
51292;SDS011;37377;45.186;9.778;2023-06-14T17:08:43;18.73;;;13.05;;
51292;SDS011;37377;45.186;9.778;2023-06-14T17:11:11;17.02;;;13.02;;
51292;SDS011;37377;45.186;9.778;2023-06-14T17:13:37;13.52;;;12.13;;
51292;SDS011;37377;45.186;9.778;2023-06-14T17:16:05;15.88;;;12.95;;
51292;SDS011;37377;45.186;9.778;2023-06-14T17:18:33;16.73;;;11.90;;
51292;SDS011;37377;45.186;9.778;2023-06-14T17:21:00;18.00;;;12.63;;
51292;SDS011;37377;45.186;9.778;2023-06-14T17:23:28;20.83;;;14.07;;
51292;SDS011;37377;45.186;9.778;2023-06-14T17:25:55;17.90;;;14.63;;
51292;SDS011;37377;45.186;9.778;2023-06-14T17:28:22;16.02;;;13.88;;
51292;SDS011;37377;45.186;9.778;2023-06-14T17:30:48;17.92;;;13.25;;
51292;SDS011;37377;45.186;9.778;2023-06-14T17:33:15;21.75;;;12.40;;
51292;SDS011;37377;45.186;9.778;2023-06-14T17:35:46;21.23;;;12.90;;
51292;SDS011;37377;45.186;9.778;2023-06-14T17:38:13;22.27;;;13.07;;
51292;SDS011;37377;45.186;9.778;2023-06-14T17:40:41;15.63;;;12.85;;
51292;SDS011;37377;45.186;9.778;2023-06-14T17:43:17;17.08;;;12.43;;